This is the latest recevied weather packets stored in our database for station/object W2BP-13. If no packets are shown the sender has not sent any weather packets the latest 10 day(s).
| Time | Temp. | Humidity | Pressure | Rain* | Wind** | Luminosity | Snow |
|---|---|---|---|---|---|---|---|
| 1777740933 | 22.22° C | 42% | 1018.3 hPa | 0 mm | - | - | - |
| 1777740033 | 21.67° C | 47% | 1018.1 hPa | 0 mm | - | - | - |
| 1777739132 | 21.11° C | 44% | 1018.2 hPa | 0 mm | - | - | - |
| 1777738233 | 21.11° C | 45% | 1018.3 hPa | 0 mm | - | - | - |
| 1777737332 | 20° C | 47% | 1018.2 hPa | 0 mm | - | - | - |
| 1777736432 | 18.89° C | 48% | 1018 hPa | 0 mm | - | - | - |
| 1777735533 | 18.33° C | 58% | 1018.1 hPa | 0 mm | - | - | - |
| 1777734632 | 18.33° C | 54% | 1018.1 hPa | 0 mm | - | - | - |
| 1777733733 | 15° C | 64% | 1018 hPa | 0 mm | - | - | - |
| 1777732833 | 14.44° C | 72% | 1018 hPa | 0 mm | - | - | - |
| 1777731932 | 15° C | 68% | 1018 hPa | 0 mm | - | - | - |
| 1777731033 | 16.11° C | 59% | 1017.8 hPa | 0 mm | - | - | - |
| 1777730132 | 15° C | 63% | 1017.8 hPa | 0 mm | - | - | - |
| 1777729233 | 13.89° C | 65% | 1017.5 hPa | 0 mm | - | - | - |
| 1777728332 | 12.78° C | 70% | 1017.2 hPa | 0 mm | - | - | - |
| 1777727433 | 12.78° C | 68% | 1017.3 hPa | 0 mm | - | - | - |
| 1777726532 | 12.78° C | 67% | 1016.8 hPa | 0 mm | - | - | - |
| 1777725633 | 13.33° C | 69% | 1017.1 hPa | 0 mm | - | - | - |
| 1777724732 | 13.33° C | 66% | 1017.3 hPa | 0 mm | - | - | - |
| 1777723833 | 13.33° C | 65% | 1017 hPa | 0 mm | - | - | - |
| 1777722932 | 13.89° C | 61% | 1016.8 hPa | 0 mm | - | - | - |
| 1777722033 | 13.33° C | 63% | 1017 hPa | 0 mm | - | - | - |
| 1777721133 | 13.89° C | 63% | 1017.2 hPa | 0 mm | - | - | - |
| 1777720233 | 14.44° C | 59% | 1017 hPa | 0 mm | - | - | - |
| 1777719333 | 15° C | 57% | 1016.6 hPa | 0 mm | - | - | - |
* Rain latest hour (hover to see other rain measurements)
** Current wind speed in m/s (hover to see current wind gust speed)